DRRN/NIM METAR and TAF weather

Enter ICAO airport designator
Station Type Date Time Source
DRRN METAR 2018/12/10 23:00 UTC NOAA

DRRN 102300Z 02004KT CAVOK 21/M01 Q1017 NOSIG


Station Type Date Time Source
DRRN Decoded METAR 2018/12/10 23:00 UTC NOAA

Niamey-Aero, Niger (DRRN) 13-29N 002-10E 227M
Dec 10, 2018 - 06:00 PM EST / 2018.12.10 2300 UTC
Wind: from the NNE (020 degrees) at 5 MPH (4 KT):0
Visibility: greater than 7 mile(s):0
Temperature: 69 F (21 C)
Dew Point: 30 F (-1 C)
Relative Humidity: 22%
Pressure (altimeter): 30.03 in. Hg (1017 hPa)
ob: DRRN 102300Z 02004KT CAVOK 21/M01 Q1017 NOSIG
cycle: 23

Station Type Date Time Source
DRRN TAF 2018/12/10 18:30 UTC NOAA

TAF TAF DRRN 101700Z 1018/1124 06007KT 8000 NSC
TEMPO 1018/1021 4000 DU
TEMPO 1106/1109 4000 DU


Example: see airport list